Time;durP1;ratioP1;P1;durP2;ratioP2;P2;SDS_P1;SDS_P2;PMS_P1;PMS_P2;Temp;Humidity;BMP_temperature;BMP_pressure;BME280_temperature;BME280_humidity;BME280_pressure;Samples;Min_cycle;Max_cycle;Signal;HPM_P1;HPM_P2
2023/08/12 00:01:47;;;;;;;7.82;4.40;;;;;;;;;;5116350;28;20039;-84
2023/08/12 00:04:14;;;;;;;8.73;5.20;;;;;;;;;;5099388;28;20045;-84
2023/08/12 00:06:41;;;;;;;9.07;4.90;;;;;;;;;;5116982;28;20423;-84
2023/08/12 00:09:07;;;;;;;9.50;4.63;;;;;;;;;;5083815;28;20441;-84
2023/08/12 00:11:33;;;;;;;8.70;5.50;;;;;;;;;;5117020;28;20524;-85
2023/08/12 00:13:58;;;;;;;8.82;4.72;;;;;;;;;;5119054;28;20075;-84
2023/08/12 00:16:23;;;;;;;9.18;5.07;;;;;;;;;;5116483;28;20031;-84
2023/08/12 00:18:49;;;;;;;8.45;5.50;;;;;;;;;;5122092;28;20024;-84
2023/08/12 00:21:14;;;;;;;7.53;4.95;;;;;;;;;;5099575;28;20030;-84
2023/08/12 00:23:40;;;;;;;7.85;5.20;;;;;;;;;;5085991;28;20028;-84
2023/08/12 00:26:08;;;;;;;7.15;5.30;;;;;;;;;;5082236;28;20036;-84
2023/08/12 00:28:34;;;;;;;11.20;5.25;;;;;;;;;;5115672;28;20055;-84
2023/08/12 00:30:59;;;;;;;10.05;5.05;;;;;;;;;;5081837;28;20030;-84
2023/08/12 00:33:25;;;;;;;11.10;5.10;;;;;;;;;;5098962;28;20459;-84
2023/08/12 00:35:50;;;;;;;8.50;5.10;;;;;;;;;;5082047;28;20440;-84
2023/08/12 00:38:16;;;;;;;11.25;5.40;;;;;;;;;;5081655;28;20031;-84
2023/08/12 00:40:41;;;;;;;12.48;5.10;;;;;;;;;;5098731;28;20019;-84
2023/08/12 00:43:07;;;;;;;9.90;5.35;;;;;;;;;;5083153;28;20125;-84
2023/08/12 00:45:33;;;;;;;12.98;5.38;;;;;;;;;;5115451;28;20030;-84
2023/08/12 00:47:58;;;;;;;10.60;5.95;;;;;;;;;;5081920;28;20030;-84
2023/08/12 00:50:24;;;;;;;11.65;5.20;;;;;;;;;;5081868;28;20023;-84
2023/08/12 00:52:49;;;;;;;8.38;5.30;;;;;;;;;;5115542;28;20027;-84
2023/08/12 00:55:15;;;;;;;10.55;5.47;;;;;;;;;;5081579;28;20460;-84
2023/08/12 00:57:40;;;;;;;8.57;5.32;;;;;;;;;;5098253;28;20069;-84
2023/08/12 01:00:07;;;;;;;9.55;5.60;;;;;;;;;;5114891;28;20032;-84
2023/08/12 01:02:33;;;;;;;13.00;5.50;;;;;;;;;;5098805;28;20024;-85
2023/08/12 01:04:58;;;;;;;10.45;5.60;;;;;;;;;;5081572;28;20034;-84
2023/08/12 01:07:24;;;;;;;14.05;6.28;;;;;;;;;;5115320;28;20080;-85
2023/08/12 01:09:49;;;;;;;11.00;6.00;;;;;;;;;;5115096;28;20019;-85
2023/08/12 01:12:24;;;;;;;12.40;6.15;;;;;;;;;;5116369;28;20028;-84
2023/08/12 01:15:01;;;;;;;10.73;6.53;;;;;;;;;;5115775;28;20038;-84
2023/08/12 01:17:27;;;;;;;13.38;6.72;;;;;;;;;;5116002;28;20019;-84
2023/08/12 01:19:53;;;;;;;15.77;6.18;;;;;;;;;;5098053;28;20032;-84
2023/08/12 01:22:18;;;;;;;10.07;5.75;;;;;;;;;;5097768;28;20085;-84
2023/08/12 01:24:44;;;;;;;13.52;5.93;;;;;;;;;;5132084;27;20082;-84
2023/08/12 01:27:11;;;;;;;17.77;6.40;;;;;;;;;;5114245;28;20077;-84
2023/08/12 01:29:45;;;;;;;9.60;6.07;;;;;;;;;;5097971;28;20552;-85
2023/08/12 01:32:18;;;;;;;13.80;6.10;;;;;;;;;;5081028;28;20406;-84
2023/08/12 01:34:49;;;;;;;11.07;6.15;;;;;;;;;;5098169;28;20038;-84
2023/08/12 01:37:20;;;;;;;17.52;6.35;;;;;;;;;;5114565;28;20027;-84
2023/08/12 01:39:45;;;;;;;14.18;6.50;;;;;;;;;;5081010;28;20036;-84
2023/08/12 01:42:11;;;;;;;12.82;6.50;;;;;;;;;;5097170;28;20032;-84
2023/08/12 01:44:36;;;;;;;13.57;6.18;;;;;;;;;;5097563;28;20023;-84
2023/08/12 01:47:02;;;;;;;10.73;6.00;;;;;;;;;;5097748;28;20023;-84
2023/08/12 01:49:28;;;;;;;15.02;6.07;;;;;;;;;;5113594;28;20039;-84
2023/08/12 01:51:53;;;;;;;13.45;6.32;;;;;;;;;;5114076;28;20023;-84
2023/08/12 01:54:19;;;;;;;19.00;5.88;;;;;;;;;;5080525;28;20058;-84
2023/08/12 01:56:44;;;;;;;12.88;6.30;;;;;;;;;;5114109;28;20066;-84
2023/08/12 01:59:09;;;;;;;14.48;6.93;;;;;;;;;;5097330;28;20100;-84
2023/08/12 02:01:35;;;;;;;12.88;6.30;;;;;;;;;;5080428;28;20023;-83
2023/08/12 02:04:00;;;;;;;15.13;6.53;;;;;;;;;;5115590;28;20034;-84
2023/08/12 02:06:26;;;;;;;12.90;6.50;;;;;;;;;;5115415;28;20418;-84
2023/08/12 02:08:51;;;;;;;9.93;6.47;;;;;;;;;;5114556;28;20028;-85
2023/08/12 02:11:17;;;;;;;15.40;6.88;;;;;;;;;;5097756;28;20024;-84
2023/08/12 02:13:42;;;;;;;16.63;6.28;;;;;;;;;;5114706;28;20020;-84
2023/08/12 02:16:08;;;;;;;14.43;6.55;;;;;;;;;;5114926;28;20015;-84
2023/08/12 02:18:33;;;;;;;10.80;6.35;;;;;;;;;;5113476;28;20008;-83
2023/08/12 02:20:59;;;;;;;12.05;6.70;;;;;;;;;;5111694;28;20034;-84
2023/08/12 02:23:24;;;;;;;13.00;7.10;;;;;;;;;;5108804;28;20039;-83
2023/08/12 02:25:50;;;;;;;11.90;6.57;;;;;;;;;;5110977;28;20020;-83
2023/08/12 02:28:15;;;;;;;11.75;7.30;;;;;;;;;;5109802;28;20056;-84
2023/08/12 02:30:43;;;;;;;15.63;6.80;;;;;;;;;;5105079;28;20024;-84
2023/08/12 02:33:08;;;;;;;18.73;7.15;;;;;;;;;;5113708;28;20031;-84
2023/08/12 02:35:33;;;;;;;13.98;7.28;;;;;;;;;;5113611;28;20024;-83
2023/08/12 02:37:59;;;;;;;17.45;7.70;;;;;;;;;;5113611;28;20028;-83
2023/08/12 02:40:24;;;;;;;15.10;7.47;;;;;;;;;;5114722;28;20039;-83
2023/08/12 02:42:50;;;;;;;13.55;7.50;;;;;;;;;;5114694;28;20020;-83
2023/08/12 02:45:15;;;;;;;14.02;7.22;;;;;;;;;;5113541;28;20406;-82
2023/08/12 02:47:41;;;;;;;12.98;7.43;;;;;;;;;;5113448;28;20019;-83
2023/08/12 02:50:07;;;;;;;13.45;6.93;;;;;;;;;;5114533;28;20019;-84
2023/08/12 02:52:32;;;;;;;25.52;7.47;;;;;;;;;;5113872;28;20454;-84
2023/08/12 02:54:58;;;;;;;15.55;7.43;;;;;;;;;;5113092;28;20028;-83
2023/08/12 02:57:23;;;;;;;18.65;7.53;;;;;;;;;;5113501;28;20020;-84
2023/08/12 02:59:49;;;;;;;16.20;7.68;;;;;;;;;;5114398;28;20484;-83
2023/08/12 03:02:16;;;;;;;14.38;7.95;;;;;;;;;;5116126;28;20437;-83
2023/08/12 03:04:41;;;;;;;20.02;7.15;;;;;;;;;;5101086;28;20027;-83
2023/08/12 03:07:07;;;;;;;19.15;7.97;;;;;;;;;;5100645;28;20350;-83
2023/08/12 03:09:32;;;;;;;17.48;7.40;;;;;;;;;;5117101;28;20035;-84
2023/08/12 03:12:01;;;;;;;17.30;7.43;;;;;;;;;;5117594;28;20507;-84
2023/08/12 03:14:28;;;;;;;18.02;8.20;;;;;;;;;;5118732;27;20054;-83
2023/08/12 03:16:53;;;;;;;16.50;7.90;;;;;;;;;;5100386;28;20023;-85
2023/08/12 03:19:18;;;;;;;14.60;7.90;;;;;;;;;;5118255;28;20031;-83
2023/08/12 03:21:44;;;;;;;14.30;7.63;;;;;;;;;;5117046;28;20354;-84
2023/08/12 03:24:09;;;;;;;18.02;7.90;;;;;;;;;;5117892;28;20024;-83
2023/08/12 03:26:35;;;;;;;12.20;7.13;;;;;;;;;;5117311;28;20032;-83
2023/08/12 03:29:00;;;;;;;14.95;7.40;;;;;;;;;;5099720;28;20108;-83
2023/08/12 03:31:26;;;;;;;16.60;7.20;;;;;;;;;;5100169;28;20046;-83
2023/08/12 03:33:51;;;;;;;21.15;8.07;;;;;;;;;;5116794;28;20039;-84
2023/08/12 03:36:16;;;;;;;16.25;8.25;;;;;;;;;;5116834;28;20033;-84
2023/08/12 03:38:42;;;;;;;20.90;7.40;;;;;;;;;;5117657;28;20020;-84
2023/08/12 03:41:07;;;;;;;21.88;8.18;;;;;;;;;;5099762;28;20024;-83
2023/08/12 03:43:33;;;;;;;22.33;8.40;;;;;;;;;;5116759;28;20521;-84
2023/08/12 03:45:59;;;;;;;15.73;8.10;;;;;;;;;;5099905;28;20034;-84
2023/08/12 03:48:24;;;;;;;17.88;8.45;;;;;;;;;;5099636;28;20024;-83
2023/08/12 03:50:49;;;;;;;16.13;7.85;;;;;;;;;;5099789;28;20023;-83
2023/08/12 03:53:16;;;;;;;15.45;8.00;;;;;;;;;;5116209;28;20024;-83
2023/08/12 03:55:41;;;;;;;18.00;7.57;;;;;;;;;;5116417;28;20027;-84
2023/08/12 03:58:06;;;;;;;24.85;8.40;;;;;;;;;;5116449;28;20027;-83
2023/08/12 04:00:32;;;;;;;20.27;7.85;;;;;;;;;;5082447;28;20040;-83
2023/08/12 04:02:57;;;;;;;17.58;7.75;;;;;;;;;;5117409;28;20333;-83
2023/08/12 04:05:23;;;;;;;29.48;8.55;;;;;;;;;;5099620;28;20019;-83
2023/08/12 04:07:48;;;;;;;18.20;9.05;;;;;;;;;;5098929;28;20031;-83
2023/08/12 04:10:13;;;;;;;22.90;9.30;;;;;;;;;;5116296;28;20457;-84
2023/08/12 04:12:40;;;;;;;15.85;8.63;;;;;;;;;;5115303;28;20024;-83
2023/08/12 04:15:06;;;;;;;21.75;9.77;;;;;;;;;;5099062;28;20112;-83
2023/08/12 04:17:32;;;;;;;19.77;9.25;;;;;;;;;;5099423;28;20114;-83
2023/08/12 04:19:57;;;;;;;36.45;9.50;;;;;;;;;;5116241;28;20456;-83
2023/08/12 04:22:23;;;;;;;20.70;10.05;;;;;;;;;;5117094;28;20035;-83
2023/08/12 04:24:48;;;;;;;24.55;9.00;;;;;;;;;;5116428;28;20038;-83
2023/08/12 04:27:16;;;;;;;23.48;10.52;;;;;;;;;;5098809;28;20106;-83
2023/08/12 04:29:41;;;;;;;31.70;10.98;;;;;;;;;;5115726;28;20034;-83
2023/08/12 04:32:07;;;;;;;26.77;10.88;;;;;;;;;;5116031;28;20019;-83
2023/08/12 04:34:32;;;;;;;27.10;11.18;;;;;;;;;;5116805;28;20433;-83
2023/08/12 04:36:58;;;;;;;24.20;10.23;;;;;;;;;;5116703;28;20444;-83
2023/08/12 04:39:23;;;;;;;24.60;10.60;;;;;;;;;;5116994;28;20368;-83
2023/08/12 04:41:48;;;;;;;20.23;10.18;;;;;;;;;;5098552;28;20059;-84
2023/08/12 04:44:14;;;;;;;20.00;9.85;;;;;;;;;;5115513;28;20055;-83
2023/08/12 04:46:39;;;;;;;20.95;10.02;;;;;;;;;;5115679;28;20057;-83
2023/08/12 04:49:05;;;;;;;22.75;10.57;;;;;;;;;;5116820;28;20035;-84
2023/08/12 04:51:31;;;;;;;29.17;10.75;;;;;;;;;;5115193;28;20076;-83
2023/08/12 04:53:57;;;;;;;21.58;10.75;;;;;;;;;;5098525;28;20023;-83
2023/08/12 04:56:24;;;;;;;18.35;9.90;;;;;;;;;;5098337;28;20103;-83
2023/08/12 04:58:49;;;;;;;20.92;10.55;;;;;;;;;;5098380;28;20118;-84
2023/08/12 05:01:14;;;;;;;26.88;10.15;;;;;;;;;;5116354;28;20131;-84
2023/08/12 05:03:40;;;;;;;21.73;11.25;;;;;;;;;;5115310;28;20451;-83
2023/08/12 05:06:05;;;;;;;37.97;12.73;;;;;;;;;;5116253;28;20030;-83
2023/08/12 05:08:30;;;;;;;32.90;12.95;;;;;;;;;;5115118;28;20024;-84
2023/08/12 05:10:56;;;;;;;32.97;11.68;;;;;;;;;;5114931;28;20019;-83
2023/08/12 05:13:23;;;;;;;24.10;10.88;;;;;;;;;;5097866;28;20119;-83
2023/08/12 05:15:48;;;;;;;26.02;10.55;;;;;;;;;;5098162;28;20026;-83
2023/08/12 05:18:14;;;;;;;27.38;10.88;;;;;;;;;;5097997;28;20024;-83
2023/08/12 05:20:41;;;;;;;25.90;10.65;;;;;;;;;;5080876;28;20090;-83
2023/08/12 05:23:07;;;;;;;25.98;9.25;;;;;;;;;;5097963;28;20097;-83
2023/08/12 05:25:32;;;;;;;21.08;9.43;;;;;;;;;;5081012;28;20027;-84
2023/08/12 05:27:57;;;;;;;19.20;9.20;;;;;;;;;;5097913;28;20039;-83
2023/08/12 05:30:23;;;;;;;15.57;8.07;;;;;;;;;;5114534;28;20353;-83
2023/08/12 05:32:48;;;;;;;18.30;8.65;;;;;;;;;;5114553;28;20034;-84
2023/08/12 05:35:14;;;;;;;14.82;7.93;;;;;;;;;;5097256;28;20024;-84
2023/08/12 05:37:39;;;;;;;16.17;7.82;;;;;;;;;;5080835;28;20073;-84
2023/08/12 05:40:08;;;;;;;22.70;8.18;;;;;;;;;;5114355;28;20436;-84
2023/08/12 05:42:34;;;;;;;18.98;8.23;;;;;;;;;;5114720;28;20031;-84
2023/08/12 05:44:59;;;;;;;19.05;8.13;;;;;;;;;;5097479;28;20028;-84
2023/08/12 05:47:24;;;;;;;24.73;8.18;;;;;;;;;;5097609;28;20088;-84
2023/08/12 05:49:50;;;;;;;15.75;7.72;;;;;;;;;;5097062;28;20031;-82
2023/08/12 05:52:15;;;;;;;17.73;8.13;;;;;;;;;;5097316;28;20032;-82
2023/08/12 05:54:41;;;;;;;23.13;8.23;;;;;;;;;;5097347;28;20035;-82
2023/08/12 05:57:06;;;;;;;14.88;7.07;;;;;;;;;;5114097;28;20032;-82
2023/08/12 05:59:31;;;;;;;17.85;7.38;;;;;;;;;;5080285;28;20367;-82
2023/08/12 06:01:57;;;;;;;22.17;7.82;;;;;;;;;;5080285;28;20461;-82
2023/08/12 06:04:22;;;;;;;19.02;7.50;;;;;;;;;;5113949;28;20387;-82
2023/08/12 06:06:48;;;;;;;16.13;6.70;;;;;;;;;;5115106;28;20032;-84
2023/08/12 06:09:13;;;;;;;15.35;6.53;;;;;;;;;;5114059;28;20036;-85
2023/08/12 06:11:39;;;;;;;18.23;6.03;;;;;;;;;;5097429;28;20032;-84
2023/08/12 06:14:04;;;;;;;11.00;5.82;;;;;;;;;;5097079;28;20035;-82
2023/08/12 06:16:30;;;;;;;14.18;6.07;;;;;;;;;;5097067;28;20027;-82
2023/08/12 06:18:55;;;;;;;12.43;5.95;;;;;;;;;;5113511;28;20049;-82
2023/08/12 06:21:21;;;;;;;12.27;5.88;;;;;;;;;;5113932;28;20418;-82
2023/08/12 06:23:46;;;;;;;15.80;6.18;;;;;;;;;;5114205;28;20432;-82
2023/08/12 06:26:12;;;;;;;22.75;6.28;;;;;;;;;;5096824;28;20360;-83
2023/08/12 06:28:37;;;;;;;12.20;5.90;;;;;;;;;;5080041;28;20046;-83
2023/08/12 06:31:03;;;;;;;12.70;5.97;;;;;;;;;;5113814;28;20035;-83
2023/08/12 06:33:28;;;;;;;10.63;6.20;;;;;;;;;;5113483;28;20088;-82
2023/08/12 06:35:54;;;;;;;16.45;5.88;;;;;;;;;;5095997;28;20113;-83
2023/08/12 06:38:19;;;;;;;10.65;5.20;;;;;;;;;;5113949;28;20490;-83
2023/08/12 06:40:46;;;;;;;15.02;5.68;;;;;;;;;;5113445;28;20118;-83
2023/08/12 06:43:12;;;;;;;10.70;5.50;;;;;;;;;;5079645;28;20115;-83
2023/08/12 06:45:37;;;;;;;13.25;5.63;;;;;;;;;;5114475;28;20169;-83
2023/08/12 06:48:05;;;;;;;9.60;4.88;;;;;;;;;;5112911;28;20028;-83
2023/08/12 06:50:33;;;;;;;10.00;5.70;;;;;;;;;;5113673;28;20031;-83
2023/08/12 06:52:58;;;;;;;10.50;5.50;;;;;;;;;;5096558;28;20047;-83
2023/08/12 06:55:24;;;;;;;12.90;6.28;;;;;;;;;;5096240;28;20024;-83
2023/08/12 06:57:49;;;;;;;8.68;5.57;;;;;;;;;;5113269;28;20032;-83
2023/08/12 07:00:15;;;;;;;11.60;5.88;;;;;;;;;;5113293;28;20039;-82
2023/08/12 07:02:42;;;;;;;14.07;5.75;;;;;;;;;;5079403;28;20442;-83
2023/08/12 07:05:08;;;;;;;10.95;5.53;;;;;;;;;;5080260;28;20483;-83
2023/08/12 07:07:33;;;;;;;9.93;5.78;;;;;;;;;;5079659;28;20031;-83
2023/08/12 07:09:59;;;;;;;11.82;5.82;;;;;;;;;;5113698;28;20067;-83
2023/08/12 07:12:24;;;;;;;11.20;5.45;;;;;;;;;;5113161;28;20030;-83
2023/08/12 07:14:50;;;;;;;10.77;5.38;;;;;;;;;;5113135;28;20057;-83
2023/08/12 07:17:15;;;;;;;9.98;5.53;;;;;;;;;;5095814;28;20030;-83
2023/08/12 07:19:40;;;;;;;13.85;5.15;;;;;;;;;;5095842;28;20407;-83
2023/08/12 07:22:06;;;;;;;10.68;4.88;;;;;;;;;;5096127;28;20122;-83
2023/08/12 07:24:31;;;;;;;15.70;5.68;;;;;;;;;;5096280;28;20064;-83
2023/08/12 07:26:57;;;;;;;13.32;6.18;;;;;;;;;;5079293;28;20027;-83
2023/08/12 07:29:22;;;;;;;11.75;5.65;;;;;;;;;;5112819;28;20055;-83
2023/08/12 07:31:48;;;;;;;11.30;5.70;;;;;;;;;;5095781;28;20035;-83
2023/08/12 07:34:13;;;;;;;9.15;5.75;;;;;;;;;;5113947;28;20038;-83
2023/08/12 07:36:40;;;;;;;11.05;5.90;;;;;;;;;;5112935;28;20035;-83
2023/08/12 07:39:06;;;;;;;14.50;5.88;;;;;;;;;;5095833;28;20038;-83
2023/08/12 07:41:31;;;;;;;14.10;5.75;;;;;;;;;;5096309;28;20027;-83
2023/08/12 07:43:57;;;;;;;7.63;5.18;;;;;;;;;;5113930;28;20114;-83
2023/08/12 07:46:23;;;;;;;11.32;5.72;;;;;;;;;;5095702;28;20063;-83
2023/08/12 07:48:48;;;;;;;9.45;6.10;;;;;;;;;;5115832;28;20031;-83
2023/08/12 07:51:14;;;;;;;10.57;5.18;;;;;;;;;;5118410;28;20023;-83
2023/08/12 07:53:40;;;;;;;7.68;5.70;;;;;;;;;;5082912;28;20360;-83
2023/08/12 07:56:05;;;;;;;9.73;5.60;;;;;;;;;;5099343;28;20034;-83
2023/08/12 07:58:49;;;;;;;9.35;5.60;;;;;;;;;;5082652;28;20033;-83
2023/08/12 08:01:15;;;;;;;13.80;6.05;;;;;;;;;;5117514;28;20034;-82
2023/08/12 08:03:40;;;;;;;10.45;6.40;;;;;;;;;;5099365;28;20023;-82
2023/08/12 08:06:06;;;;;;;7.75;5.30;;;;;;;;;;5099487;28;20041;-83
2023/08/12 08:08:31;;;;;;;12.80;5.72;;;;;;;;;;5117332;28;20023;-83
2023/08/12 08:10:57;;;;;;;16.20;5.97;;;;;;;;;;5099426;28;20027;-83
2023/08/12 08:13:22;;;;;;;11.10;6.25;;;;;;;;;;5099210;28;20436;-83
2023/08/12 08:15:47;;;;;;;12.60;6.20;;;;;;;;;;5098941;28;20027;-83
2023/08/12 08:18:13;;;;;;;12.25;6.00;;;;;;;;;;5099003;28;20140;-84
2023/08/12 08:20:41;;;;;;;12.25;6.47;;;;;;;;;;5117128;28;20104;-83
2023/08/12 08:23:07;;;;;;;;;;;;;;;;;;5083120;28;20026;-84
2023/08/12 08:25:32;;;;;;;14.27;6.30;;;;;;;;;;5099132;28;19912;-83
2023/08/12 08:27:58;;;;;;;14.82;6.40;;;;;;;;;;5116799;27;20292;-83
2023/08/12 08:30:25;;;;;;;9.13;5.60;;;;;;;;;;5082283;28;20035;-83
2023/08/12 08:32:51;;;;;;;11.27;6.38;;;;;;;;;;5117245;28;20024;-83
2023/08/12 08:35:16;;;;;;;10.20;5.97;;;;;;;;;;5116754;28;20051;-83
2023/08/12 08:37:42;;;;;;;18.45;6.47;;;;;;;;;;5098941;28;20028;-83
2023/08/12 08:40:08;;;;;;;14.07;6.25;;;;;;;;;;5082102;28;20031;-84
2023/08/12 08:42:33;;;;;;;13.00;6.05;;;;;;;;;;5098256;28;20130;-83
2023/08/12 08:45:01;;;;;;;13.20;6.20;;;;;;;;;;5098956;28;20135;-83
2023/08/12 08:47:27;;;;;;;13.13;6.13;;;;;;;;;;5098611;28;20081;-83
2023/08/12 08:49:56;;;;;;;10.70;5.85;;;;;;;;;;5099131;28;20265;-84
2023/08/12 08:52:23;;;;;;;24.15;6.60;;;;;;;;;;5098858;28;20068;-82
2023/08/12 08:54:48;;;;;;;11.30;6.65;;;;;;;;;;5098683;28;20390;-84
2023/08/12 08:57:13;;;;;;;7.53;5.53;;;;;;;;;;5098060;28;20030;-83
2023/08/12 08:59:39;;;;;;;10.98;5.85;;;;;;;;;;5097879;28;20061;-83
2023/08/12 09:02:05;;;;;;;12.73;5.95;;;;;;;;;;5081482;28;20176;-84
2023/08/12 09:04:30;;;;;;;17.00;5.97;;;;;;;;;;5098368;28;20110;-84
2023/08/12 09:06:56;;;;;;;10.38;6.50;;;;;;;;;;5081310;28;20028;-84
2023/08/12 09:09:23;;;;;;;11.82;6.40;;;;;;;;;;5098018;28;20023;-83
2023/08/12 09:11:48;;;;;;;11.35;6.53;;;;;;;;;;5114757;28;20503;-83
2023/08/12 09:14:16;;;;;;;14.32;6.03;;;;;;;;;;5097987;28;20160;-83
2023/08/12 09:16:41;;;;;;;9.57;6.00;;;;;;;;;;5081119;28;20027;-83
2023/08/12 09:19:07;;;;;;;14.55;6.60;;;;;;;;;;5097991;28;20035;-84
2023/08/12 09:21:32;;;;;;;10.40;6.30;;;;;;;;;;5097891;28;20024;-84
2023/08/12 09:23:58;;;;;;;10.52;6.53;;;;;;;;;;5080998;28;20187;-84
2023/08/12 09:26:23;;;;;;;10.32;6.20;;;;;;;;;;5080228;28;20024;-84
2023/08/12 09:28:49;;;;;;;17.92;6.32;;;;;;;;;;5114529;28;20047;-83
2023/08/12 09:31:26;;;;;;;11.13;6.38;;;;;;;;;;5097640;28;20077;-83
2023/08/12 09:33:52;;;;;;;13.32;6.35;;;;;;;;;;5098174;28;20055;-84
2023/08/12 09:36:18;;;;;;;13.25;6.32;;;;;;;;;;5097500;28;20051;-83
2023/08/12 09:38:47;;;;;;;10.38;6.10;;;;;;;;;;5114330;28;20067;-84
2023/08/12 09:41:13;;;;;;;19.08;6.47;;;;;;;;;;5097450;28;20365;-83
2023/08/12 09:43:44;;;;;;;14.40;5.57;;;;;;;;;;5097259;28;20096;-84
2023/08/12 09:46:15;;;;;;;12.18;6.65;;;;;;;;;;5097771;28;20028;-83
2023/08/12 09:48:41;;;;;;;14.75;5.80;;;;;;;;;;5097601;28;20027;-84
2023/08/12 09:51:12;;;;;;;15.95;6.45;;;;;;;;;;5096933;28;20353;-84
2023/08/12 09:53:38;;;;;;;20.35;6.68;;;;;;;;;;5099190;28;20062;-84
2023/08/12 09:56:06;;;;;;;16.40;6.60;;;;;;;;;;5114900;28;20027;-83
2023/08/12 09:58:31;;;;;;;;;;;;;;;;;;5114882;28;20028;-84
2023/08/12 10:00:57;;;;;;;12.23;6.13;;;;;;;;;;5114070;28;20497;-84
2023/08/12 10:03:25;;;;;;;11.07;6.22;;;;;;;;;;5097155;28;20284;-84
2023/08/12 10:05:51;;;;;;;9.80;6.05;;;;;;;;;;5081143;28;20038;-84
2023/08/12 10:08:19;;;;;;;11.05;6.53;;;;;;;;;;5098392;28;20360;-85
2023/08/12 10:10:45;;;;;;;11.18;6.30;;;;;;;;;;5080329;28;20035;-84
2023/08/12 10:13:10;;;;;;;15.65;6.90;;;;;;;;;;5096983;28;20364;-84
2023/08/12 10:15:36;;;;;;;11.05;6.55;;;;;;;;;;5080246;28;20031;-84
2023/08/12 10:18:02;;;;;;;13.90;6.43;;;;;;;;;;5115194;28;20069;-84
2023/08/12 10:20:28;;;;;;;13.85;6.07;;;;;;;;;;5096709;28;20051;-84
2023/08/12 10:23:16;;;;;;;11.57;6.07;;;;;;;;;;5080234;28;20035;-84
2023/08/12 10:25:41;;;;;;;10.60;6.05;;;;;;;;;;5082434;28;20059;-84
2023/08/12 10:28:07;;;;;;;9.63;6.15;;;;;;;;;;5079754;28;20145;-83
2023/08/12 10:30:34;;;;;;;11.35;6.05;;;;;;;;;;5113888;28;20047;-84
2023/08/12 10:33:00;;;;;;;11.80;7.00;;;;;;;;;;5113472;28;20039;-84
2023/08/12 10:35:40;;;;;;;13.82;6.15;;;;;;;;;;5115145;28;20118;-83
2023/08/12 10:38:08;;;;;;;11.40;6.45;;;;;;;;;;5114690;28;20110;-85
2023/08/12 10:40:34;;;;;;;13.77;6.45;;;;;;;;;;5095301;28;20046;-84
2023/08/12 10:43:00;;;;;;;10.13;6.28;;;;;;;;;;5114811;28;20023;-85
2023/08/12 10:45:25;;;;;;;13.23;6.22;;;;;;;;;;5079919;28;20031;-84
2023/08/12 10:48:10;;;;;;;10.10;6.40;;;;;;;;;;5096287;28;20028;-84
2023/08/12 10:50:36;;;;;;;9.57;5.90;;;;;;;;;;5113575;28;20058;-84
2023/08/12 10:53:31;;;;;;;12.95;6.53;;;;;;;;;;5113058;28;20028;-84
2023/08/12 10:56:04;;;;;;;10.18;6.13;;;;;;;;;;5081223;28;20023;-84
2023/08/12 10:58:46;;;;;;;10.57;6.60;;;;;;;;;;5114603;28;20034;-84
2023/08/12 11:01:15;;;;;;;11.95;6.45;;;;;;;;;;5080707;28;20024;-84
2023/08/12 11:03:42;;;;;;;12.90;7.40;;;;;;;;;;5096489;28;20031;-83
2023/08/12 11:06:10;;;;;;;12.20;6.55;;;;;;;;;;5079445;28;20073;-84
2023/08/12 11:08:35;;;;;;;13.75;6.85;;;;;;;;;;5113077;28;20028;-86
2023/08/12 11:11:01;;;;;;;10.00;6.80;;;;;;;;;;5096322;28;20025;-84
2023/08/12 11:13:27;;;;;;;13.35;6.90;;;;;;;;;;5096313;28;20024;-84
2023/08/12 11:15:53;;;;;;;14.23;7.28;;;;;;;;;;5113143;28;20024;-84
2023/08/12 11:18:20;;;;;;;15.88;6.95;;;;;;;;;;5079280;28;20038;-84
2023/08/12 11:20:46;;;;;;;15.70;7.63;;;;;;;;;;5096147;28;20083;-84
2023/08/12 11:23:12;;;;;;;15.52;7.03;;;;;;;;;;5081808;28;20032;-83
2023/08/12 11:25:39;;;;;;;14.00;6.97;;;;;;;;;;5117005;28;20035;-84
2023/08/12 11:28:05;;;;;;;16.35;7.28;;;;;;;;;;5116816;28;20044;-84
2023/08/12 11:30:30;;;;;;;16.33;7.57;;;;;;;;;;5118315;28;20624;-85
2023/08/12 11:32:56;;;;;;;12.98;7.80;;;;;;;;;;5099962;28;20067;-84
2023/08/12 11:35:22;;;;;;;14.05;6.88;;;;;;;;;;5100432;28;20055;-83
2023/08/12 11:37:49;;;;;;;13.50;7.18;;;;;;;;;;5117803;27;20024;-83
2023/08/12 11:40:16;;;;;;;15.85;7.55;;;;;;;;;;5099704;28;20032;-83
2023/08/12 11:42:43;;;;;;;14.10;7.38;;;;;;;;;;5083098;28;20031;-84
2023/08/12 11:45:08;;;;;;;16.13;7.32;;;;;;;;;;5082913;28;20352;-84
2023/08/12 11:47:34;;;;;;;17.50;7.43;;;;;;;;;;5099591;28;20035;-83
2023/08/12 11:50:09;;;;;;;14.23;7.70;;;;;;;;;;5099783;28;20031;-83
2023/08/12 11:52:38;;;;;;;15.05;7.85;;;;;;;;;;5099952;28;20034;-84
2023/08/12 11:55:07;;;;;;;16.52;8.05;;;;;;;;;;5099579;28;20024;-84
2023/08/12 11:57:34;;;;;;;12.48;7.38;;;;;;;;;;5116809;28;20035;-84
2023/08/12 12:00:15;;;;;;;18.98;7.68;;;;;;;;;;5117930;28;20039;-84
2023/08/12 12:02:48;;;;;;;15.57;8.02;;;;;;;;;;5117457;28;20028;-83
2023/08/12 12:05:14;;;;;;;14.77;8.15;;;;;;;;;;5116021;28;20032;-83
2023/08/12 12:07:39;;;;;;;14.32;7.85;;;;;;;;;;5116129;28;20039;-83
2023/08/12 12:10:05;;;;;;;13.38;8.10;;;;;;;;;;5116110;28;20275;-83
2023/08/12 12:12:35;;;;;;;12.55;7.60;;;;;;;;;;5116040;28;20376;-84
2023/08/12 12:15:01;;;;;;;16.00;7.97;;;;;;;;;;5116063;28;20035;-84
2023/08/12 12:17:27;;;;;;;17.63;7.53;;;;;;;;;;5116630;28;20028;-83
2023/08/12 12:19:56;;;;;;;15.00;7.78;;;;;;;;;;5116949;28;20028;-84
2023/08/12 12:22:34;;;;;;;15.68;8.45;;;;;;;;;;5117148;27;20115;-84
2023/08/12 12:25:32;;;;;;;16.85;8.13;;;;;;;;;;5117142;28;20485;-85
2023/08/12 12:28:03;;;;;;;16.38;8.95;;;;;;;;;;5115047;28;20491;-84
2023/08/12 12:30:29;;;;;;;14.75;8.13;;;;;;;;;;5082872;28;20122;-83
2023/08/12 12:33:15;;;;;;;16.08;8.45;;;;;;;;;;5118012;28;20066;-84
2023/08/12 12:35:41;;;;;;;12.93;8.18;;;;;;;;;;5102831;28;20058;-84
2023/08/12 12:38:07;;;;;;;19.92;8.43;;;;;;;;;;5119430;28;20083;-83
2023/08/12 12:40:37;;;;;;;14.10;8.07;;;;;;;;;;5123499;28;20031;-84
2023/08/12 12:43:03;;;;;;;14.32;8.23;;;;;;;;;;5127304;28;20026;-83
2023/08/12 12:45:29;;;;;;;19.00;8.63;;;;;;;;;;5134699;28;20012;-82
2023/08/12 12:47:54;;;;;;;16.33;8.75;;;;;;;;;;5121320;28;20023;-83
2023/08/12 12:50:19;;;;;;;15.73;8.82;;;;;;;;;;5140517;28;20007;-84
2023/08/12 12:52:45;;;;;;;18.48;8.75;;;;;;;;;;5139170;28;20041;-84
2023/08/12 12:55:10;;;;;;;14.27;8.02;;;;;;;;;;5104567;28;20810;-84
2023/08/12 12:57:36;;;;;;;16.55;8.35;;;;;;;;;;5099616;28;20028;-83
2023/08/12 13:00:01;;;;;;;14.13;8.27;;;;;;;;;;5098555;28;20043;-83
2023/08/12 13:02:27;;;;;;;15.55;8.55;;;;;;;;;;5116398;28;20415;-83
2023/08/12 13:04:52;;;;;;;19.25;8.60;;;;;;;;;;5097833;28;20088;-83
2023/08/12 13:07:53;;;;;;;16.85;8.57;;;;;;;;;;5114862;28;20076;-83
2023/08/12 13:10:36;;;;;;;16.42;8.88;;;;;;;;;;5098523;28;20126;-83
2023/08/12 13:13:04;;;;;;;16.55;8.27;;;;;;;;;;5085230;28;20027;-82
2023/08/12 13:15:32;;;;;;;18.30;8.55;;;;;;;;;;5114884;28;20102;-81
2023/08/12 13:17:58;;;;;;;15.60;8.45;;;;;;;;;;5082361;28;20433;-82
2023/08/12 13:20:23;;;;;;;15.70;8.75;;;;;;;;;;5114802;28;20039;-83
2023/08/12 13:22:48;;;;;;;16.02;8.25;;;;;;;;;;5114811;28;20024;-83
2023/08/12 13:25:20;;;;;;;22.02;8.73;;;;;;;;;;5098800;28;20027;-83
2023/08/12 13:27:46;;;;;;;16.33;8.38;;;;;;;;;;5115592;28;20464;-83
2023/08/12 13:30:14;;;;;;;14.80;8.10;;;;;;;;;;5115309;28;20085;-83
2023/08/12 13:32:40;;;;;;;17.30;8.20;;;;;;;;;;5115490;28;20111;-84
2023/08/12 13:35:25;;;;;;;17.98;8.35;;;;;;;;;;5114379;28;20047;-83
2023/08/12 13:37:53;;;;;;;14.75;7.40;;;;;;;;;;5106041;28;20464;-83
2023/08/12 13:40:18;;;;;;;15.05;7.85;;;;;;;;;;5116163;28;20032;-83
2023/08/12 13:42:46;;;;;;;15.68;8.10;;;;;;;;;;5114584;28;20027;-83
2023/08/12 13:45:11;;;;;;;12.80;8.10;;;;;;;;;;5096959;28;20035;-83
2023/08/12 13:47:37;;;;;;;15.88;8.80;;;;;;;;;;5113126;28;20042;-82
2023/08/12 13:50:02;;;;;;;19.65;8.15;;;;;;;;;;5097372;28;20032;-82
2023/08/12 13:52:28;;;;;;;18.75;8.07;;;;;;;;;;5080678;28;20035;-82
2023/08/12 13:54:53;;;;;;;12.52;7.80;;;;;;;;;;5114081;28;20031;-82
2023/08/12 13:57:19;;;;;;;15.48;7.72;;;;;;;;;;5080380;28;20023;-83
2023/08/12 13:59:44;;;;;;;16.25;7.50;;;;;;;;;;5097175;28;20039;-82
2023/08/12 14:02:10;;;;;;;15.23;8.07;;;;;;;;;;5131566;27;20035;-83
2023/08/12 14:04:37;;;;;;;20.27;8.43;;;;;;;;;;5115774;28;20448;-84
2023/08/12 14:07:03;;;;;;;14.82;7.47;;;;;;;;;;5118657;28;20079;-83
2023/08/12 14:09:28;;;;;;;14.95;7.88;;;;;;;;;;5085205;28;20126;-83
2023/08/12 14:11:54;;;;;;;12.63;7.38;;;;;;;;;;5117374;28;20093;-83
2023/08/12 14:14:19;;;;;;;14.07;7.68;;;;;;;;;;5113841;28;20112;-84
2023/08/12 14:16:45;;;;;;;13.90;6.93;;;;;;;;;;5114741;28;20023;-83
2023/08/12 14:19:19;;;;;;;13.88;7.47;;;;;;;;;;5096939;28;20035;-83
2023/08/12 14:21:45;;;;;;;14.10;7.55;;;;;;;;;;5114236;28;20027;-83
2023/08/12 14:24:10;;;;;;;16.23;8.15;;;;;;;;;;5113883;28;20026;-83
2023/08/12 14:26:36;;;;;;;17.25;7.68;;;;;;;;;;5079989;28;20058;-83
2023/08/12 14:29:01;;;;;;;16.58;7.85;;;;;;;;;;5113344;28;20055;-83